Skip Navigation LinksHome page > Weather > Current weather Skip Navigation Links

Current Weather

Tipton, Fort Meade(Odenton), Md.

For information only: do not use for flight planning or navigation.
Latest weather
Observation time Wednesday, January 27, 2021 12:15 PM EST
Local time Wednesday, January 27, 2021 12:40 PM EST
Flight conditions Visual Meteorological Conditions
Winds
Wind direction North-Northwest (340°)
Wind speed 7 mph
Visibility 10 mi.
Sky condition
Ceiling 3,800 ft. broken clouds
Cloud layer broken clouds 3,800 ft.
Temperature 43°F
Dewpoint 32°F
Altimeter 30.12 in.Hg
Derived measurements
Relative humidity 65%
Wind chill 39°F
Density altitude -1071 ft.
Remarks
Fully automated report.
Automated weather observing station without precipitation discriminator.
METAR KFME 271715Z AUTO 34006KT 10SM BKN038 06/00 A3012 RMK AO1

Settings

Location code

InnerDrive.Weather 4.0.6770.0 Release CLR 4.0.30319.42000
Copyright ©2018 Inner Drive Technology. All rights reserved. Portions Copyright ©1986-2018 David Braverman.

Find weather

Site navigation


Skip Navigation Links

Place info

Page info

PayPal - The safer, easier way to pay online!

Return home.

Copyright ©2021 Inner Drive Technology. Purveyors of fine, hand-crafted computer software. Page printed 2021-01-27T17:40:54 UTC.